sensor_id;sensor_type;location;lat;lon;timestamp;pressure;altitude;pressure_sealevel;temperature;humidity
46638;BME280;32365;46.938;7.390;2023-04-22T16:20:28;94762.06;;;14.26;75.22
46638;BME280;32365;46.938;7.390;2023-04-22T16:22:54;94761.53;;;14.29;75.56
46638;BME280;32365;46.938;7.390;2023-04-22T16:25:21;94767.53;;;14.29;75.41
46638;BME280;32365;46.938;7.390;2023-04-22T16:27:48;94768.25;;;14.40;75.46
46638;BME280;32365;46.938;7.390;2023-04-22T16:30:14;94756.84;;;14.36;78.65
46638;BME280;32365;46.938;7.390;2023-04-22T16:32:41;94740.94;;;14.32;78.93
46638;BME280;32365;46.938;7.390;2023-04-22T16:35:08;94741.50;;;14.24;80.69
46638;BME280;32365;46.938;7.390;2023-04-22T16:37:36;94743.88;;;14.15;80.12
46638;BME280;32365;46.938;7.390;2023-04-22T16:40:04;94746.47;;;14.15;77.26
46638;BME280;32365;46.938;7.390;2023-04-22T16:42:30;94733.41;;;14.26;78.58
46638;BME280;32365;46.938;7.390;2023-04-22T16:44:57;94728.25;;;14.15;78.47
46638;BME280;32365;46.938;7.390;2023-04-22T16:47:23;94725.13;;;14.24;78.76
46638;BME280;32365;46.938;7.390;2023-04-22T16:49:50;94723.56;;;14.23;79.30
46638;BME280;32365;46.938;7.390;2023-04-22T16:52:17;94726.16;;;14.18;78.88
46638;BME280;32365;46.938;7.390;2023-04-22T16:54:44;94716.84;;;14.11;77.66
46638;BME280;32365;46.938;7.390;2023-04-22T16:57:11;94709.03;;;14.11;78.57
46638;BME280;32365;46.938;7.390;2023-04-22T16:59:37;94701.19;;;14.16;78.30
46638;BME280;32365;46.938;7.390;2023-04-22T17:02:04;94695.97;;;14.16;75.56
46638;BME280;32365;46.938;7.390;2023-04-22T17:04:31;94696.22;;;14.25;75.71
46638;BME280;32365;46.938;7.390;2023-04-22T17:06:57;94697.19;;;14.35;75.94
46638;BME280;32365;46.938;7.390;2023-04-22T17:09:24;94697.47;;;14.33;76.07
46638;BME280;32365;46.938;7.390;2023-04-22T17:11:51;94695.44;;;14.25;78.37
46638;BME280;32365;46.938;7.390;2023-04-22T17:14:18;94707.16;;;14.22;77.94
46638;BME280;32365;46.938;7.390;2023-04-22T17:16:44;94700.66;;;14.20;78.05
46638;BME280;32365;46.938;7.390;2023-04-22T17:19:11;94701.69;;;14.19;78.44
46638;BME280;32365;46.938;7.390;2023-04-22T17:21:37;94707.47;;;14.05;78.82
46638;BME280;32365;46.938;7.390;2023-04-22T17:24:04;94705.69;;;13.85;80.81
46638;BME280;32365;46.938;7.390;2023-04-22T17:26:30;94701.59;;;13.68;80.85
46638;BME280;32365;46.938;7.390;2023-04-22T17:28:58;94708.34;;;13.59;82.30
46638;BME280;32365;46.938;7.390;2023-04-22T17:31:25;94710.19;;;13.64;81.87
46638;BME280;32365;46.938;7.390;2023-04-22T17:33:51;94705.75;;;13.64;81.32
46638;BME280;32365;46.938;7.390;2023-04-22T17:36:18;94707.84;;;13.52;82.98
46638;BME280;32365;46.938;7.390;2023-04-22T17:38:45;94710.19;;;13.43;83.93
46638;BME280;32365;46.938;7.390;2023-04-22T17:41:11;94702.63;;;13.36;83.08
46638;BME280;32365;46.938;7.390;2023-04-22T17:43:38;94706.81;;;13.27;83.94
46638;BME280;32365;46.938;7.390;2023-04-22T17:46:05;94708.63;;;13.27;83.72
46638;BME280;32365;46.938;7.390;2023-04-22T17:48:32;94709.69;;;13.26;84.63
46638;BME280;32365;46.938;7.390;2023-04-22T17:51:00;94717.22;;;13.17;85.15
46638;BME280;32365;46.938;7.390;2023-04-22T17:53:29;94727.06;;;13.25;83.97
46638;BME280;32365;46.938;7.390;2023-04-22T17:55:55;94724.72;;;13.18;83.99
46638;BME280;32365;46.938;7.390;2023-04-22T17:58:22;94725.25;;;13.10;84.55
46638;BME280;32365;46.938;7.390;2023-04-22T18:00:48;94724.47;;;12.99;84.59
46638;BME280;32365;46.938;7.390;2023-04-22T18:03:16;94725.75;;;12.97;84.52
46638;BME280;32365;46.938;7.390;2023-04-22T18:05:44;94724.47;;;12.99;83.88
46638;BME280;32365;46.938;7.390;2023-04-22T18:08:10;94732.78;;;12.91;86.07
46638;BME280;32365;46.938;7.390;2023-04-22T18:10:37;94734.56;;;12.75;86.38
46638;BME280;32365;46.938;7.390;2023-04-22T18:13:04;94740.78;;;12.69;86.92
46638;BME280;32365;46.938;7.390;2023-04-22T18:15:31;94736.34;;;12.64;86.69
46638;BME280;32365;46.938;7.390;2023-04-22T18:17:57;94739.97;;;12.63;86.83
46638;BME280;32365;46.938;7.390;2023-04-22T18:20:25;94752.19;;;12.62;86.93
46638;BME280;32365;46.938;7.390;2023-04-22T18:22:51;94748.56;;;12.63;86.95
46638;BME280;32365;46.938;7.390;2023-04-22T18:25:20;94750.59;;;12.51;88.17
46638;BME280;32365;46.938;7.390;2023-04-22T18:27:47;94746.16;;;12.41;88.55
46638;BME280;32365;46.938;7.390;2023-04-22T18:30:15;94752.91;;;12.37;89.87
46638;BME280;32365;46.938;7.390;2023-04-22T18:32:41;94753.72;;;12.53;87.80
46638;BME280;32365;46.938;7.390;2023-04-22T18:35:09;94752.44;;;12.51;87.93
46638;BME280;32365;46.938;7.390;2023-04-22T18:37:37;94755.75;;;12.46;88.64
46638;BME280;32365;46.938;7.390;2023-04-22T18:40:04;94762.25;;;12.38;89.30
46638;BME280;32365;46.938;7.390;2023-04-22T18:42:31;94754.63;;;12.21;90.85
46638;BME280;32365;46.938;7.390;2023-04-22T18:44:57;94764.69;;;12.07;91.55
46638;BME280;32365;46.938;7.390;2023-04-22T18:47:24;94754.31;;;12.07;91.72
46638;BME280;32365;46.938;7.390;2023-04-22T18:49:51;94751.19;;;12.05;91.75
46638;BME280;32365;46.938;7.390;2023-04-22T18:52:17;94756.91;;;12.02;92.02
46638;BME280;32365;46.938;7.390;2023-04-22T18:54:45;94763.34;;;11.99;92.12
46638;BME280;32365;46.938;7.390;2023-04-22T18:57:12;94757.38;;;11.99;92.63
46638;BME280;32365;46.938;7.390;2023-04-22T18:59:39;94757.94;;;12.01;92.61
46638;BME280;32365;46.938;7.390;2023-04-22T19:02:06;94750.16;;;12.01;92.80
46638;BME280;32365;46.938;7.390;2023-04-22T19:04:35;94752.66;;;11.96;93.37
46638;BME280;32365;46.938;7.390;2023-04-22T19:07:02;94760.94;;;11.93;93.60
46638;BME280;32365;46.938;7.390;2023-04-22T19:09:28;94742.72;;;11.82;93.89
46638;BME280;32365;46.938;7.390;2023-04-22T19:11:57;94745.47;;;11.60;95.46
46638;BME280;32365;46.938;7.390;2023-04-22T19:14:24;94755.38;;;11.74;94.74
46638;BME280;32365;46.938;7.390;2023-04-22T19:16:50;94749.69;;;11.77;94.45
46638;BME280;32365;46.938;7.390;2023-04-22T19:19:17;94739.31;;;11.77;94.45
46638;BME280;32365;46.938;7.390;2023-04-22T19:21:43;94741.09;;;11.71;93.69
46638;BME280;32365;46.938;7.390;2023-04-22T19:24:10;94737.28;;;11.79;92.36
46638;BME280;32365;46.938;7.390;2023-04-22T19:26:38;94736.19;;;11.69;92.92
46638;BME280;32365;46.938;7.390;2023-04-22T19:29:06;94742.94;;;11.70;92.88
46638;BME280;32365;46.938;7.390;2023-04-22T19:31:33;94749.16;;;11.75;92.79
46638;BME280;32365;46.938;7.390;2023-04-22T19:33:59;94753.38;;;11.86;91.72
46638;BME280;32365;46.938;7.390;2023-04-22T19:36:26;94761.75;;;11.93;91.21
46638;BME280;32365;46.938;7.390;2023-04-22T19:38:53;94766.19;;;11.98;90.63
46638;BME280;32365;46.938;7.390;2023-04-22T19:41:19;94784.44;;;12.13;90.15
46638;BME280;32365;46.938;7.390;2023-04-22T19:43:46;94794.75;;;12.03;90.51
46638;BME280;32365;46.938;7.390;2023-04-22T19:46:14;94798.19;;;11.76;91.55
46638;BME280;32365;46.938;7.390;2023-04-22T19:48:41;94794.78;;;11.70;91.66
46638;BME280;32365;46.938;7.390;2023-04-22T19:51:07;94786.63;;;11.57;93.38
46638;BME280;32365;46.938;7.390;2023-04-22T19:53:35;94789.13;;;11.41;93.63
46638;BME280;32365;46.938;7.390;2023-04-22T19:56:03;94789.16;;;11.46;94.26
46638;BME280;32365;46.938;7.390;2023-04-22T19:58:30;94798.84;;;11.56;94.24
46638;BME280;32365;46.938;7.390;2023-04-22T20:00:57;94797.53;;;11.59;92.99
46638;BME280;32365;46.938;7.390;2023-04-22T20:03:26;94792.41;;;11.64;92.36
46638;BME280;32365;46.938;7.390;2023-04-22T20:05:53;94789.22;;;11.57;92.77
46638;BME280;32365;46.938;7.390;2023-04-22T20:08:24;94804.28;;;11.54;92.95
46638;BME280;32365;46.938;7.390;2023-04-22T20:10:52;94805.78;;;11.50;93.00
46638;BME280;32365;46.938;7.390;2023-04-22T20:13:19;94805.78;;;11.50;92.49
46638;BME280;32365;46.938;7.390;2023-04-22T20:15:46;94813.34;;;11.57;92.18
46638;BME280;32365;46.938;7.390;2023-04-22T20:18:13;94815.13;;;11.51;92.90
46638;BME280;32365;46.938;7.390;2023-04-22T20:20:41;94819.56;;;11.56;92.77
46638;BME280;32365;46.938;7.390;2023-04-22T20:23:10;94823.84;;;11.73;91.49
46638;BME280;32365;46.938;7.390;2023-04-22T20:25:41;94821.22;;;11.67;91.69
46638;BME280;32365;46.938;7.390;2023-04-22T20:28:08;94814.50;;;11.72;91.51
46638;BME280;32365;46.938;7.390;2023-04-22T20:30:36;94824.75;;;11.56;92.23
46638;BME280;32365;46.938;7.390;2023-04-22T20:33:03;94824.91;;;11.77;91.53
46638;BME280;32365;46.938;7.390;2023-04-22T20:35:30;94827.97;;;11.68;91.16
46638;BME280;32365;46.938;7.390;2023-04-22T20:37:58;94825.84;;;11.60;91.64
46638;BME280;32365;46.938;7.390;2023-04-22T20:40:27;94818.75;;;11.50;92.12
46638;BME280;32365;46.938;7.390;2023-04-22T20:42:56;94821.56;;;11.49;92.28
46638;BME280;32365;46.938;7.390;2023-04-22T20:45:22;94818.00;;;11.55;92.23
